sensor_id;sensor_type;location;lat;lon;timestamp;P1;durP1;ratioP1;P2;durP2;ratioP2
52274;SDS011;38228;50.940;4.024;2023-07-16T00:02:09;10.55;;;2.60;;
52274;SDS011;38228;50.940;4.024;2023-07-16T00:04:34;8.38;;;2.30;;
52274;SDS011;38228;50.940;4.024;2023-07-16T00:07:00;6.43;;;2.38;;
52274;SDS011;38228;50.940;4.024;2023-07-16T00:09:26;11.40;;;2.40;;
52274;SDS011;38228;50.940;4.024;2023-07-16T00:11:52;10.63;;;2.40;;
52274;SDS011;38228;50.940;4.024;2023-07-16T00:14:18;6.90;;;2.20;;
52274;SDS011;38228;50.940;4.024;2023-07-16T00:16:44;10.98;;;2.47;;
52274;SDS011;38228;50.940;4.024;2023-07-16T00:19:11;10.52;;;2.53;;
52274;SDS011;38228;50.940;4.024;2023-07-16T00:21:37;12.15;;;2.28;;
52274;SDS011;38228;50.940;4.024;2023-07-16T00:24:03;11.75;;;2.38;;
52274;SDS011;38228;50.940;4.024;2023-07-16T00:26:29;10.30;;;2.30;;
52274;SDS011;38228;50.940;4.024;2023-07-16T00:28:55;9.25;;;2.72;;
52274;SDS011;38228;50.940;4.024;2023-07-16T00:31:21;12.38;;;2.70;;
52274;SDS011;38228;50.940;4.024;2023-07-16T00:33:47;10.15;;;2.58;;
52274;SDS011;38228;50.940;4.024;2023-07-16T00:36:12;13.15;;;2.92;;
52274;SDS011;38228;50.940;4.024;2023-07-16T00:38:38;9.27;;;2.53;;
52274;SDS011;38228;50.940;4.024;2023-07-16T00:41:05;11.13;;;2.75;;
52274;SDS011;38228;50.940;4.024;2023-07-16T00:43:31;14.27;;;2.80;;
52274;SDS011;38228;50.940;4.024;2023-07-16T00:45:57;9.65;;;2.38;;
52274;SDS011;38228;50.940;4.024;2023-07-16T00:48:25;12.07;;;2.47;;
52274;SDS011;38228;50.940;4.024;2023-07-16T00:50:52;15.82;;;2.85;;
52274;SDS011;38228;50.940;4.024;2023-07-16T00:53:19;8.63;;;2.67;;
52274;SDS011;38228;50.940;4.024;2023-07-16T00:55:45;14.00;;;2.47;;
52274;SDS011;38228;50.940;4.024;2023-07-16T00:58:11;8.60;;;2.38;;
52274;SDS011;38228;50.940;4.024;2023-07-16T01:00:37;10.18;;;2.60;;
52274;SDS011;38228;50.940;4.024;2023-07-16T01:03:10;10.38;;;2.65;;
52274;SDS011;38228;50.940;4.024;2023-07-16T01:08:30;10.10;;;2.53;;
52274;SDS011;38228;50.940;4.024;2023-07-16T01:11:01;9.00;;;2.88;;
52274;SDS011;38228;50.940;4.024;2023-07-16T01:13:27;10.48;;;2.95;;
52274;SDS011;38228;50.940;4.024;2023-07-16T01:15:54;10.98;;;2.60;;
52274;SDS011;38228;50.940;4.024;2023-07-16T01:18:20;13.25;;;2.92;;
52274;SDS011;38228;50.940;4.024;2023-07-16T01:20:46;11.93;;;3.28;;
52274;SDS011;38228;50.940;4.024;2023-07-16T01:25:50;11.00;;;2.70;;
52274;SDS011;38228;50.940;4.024;2023-07-16T01:31:04;10.80;;;2.63;;
52274;SDS011;38228;50.940;4.024;2023-07-16T01:33:31;12.48;;;2.60;;
52274;SDS011;38228;50.940;4.024;2023-07-16T01:35:58;9.10;;;2.97;;
52274;SDS011;38228;50.940;4.024;2023-07-16T01:38:25;11.63;;;2.45;;
52274;SDS011;38228;50.940;4.024;2023-07-16T01:40:50;9.70;;;2.88;;
52274;SDS011;38228;50.940;4.024;2023-07-16T01:43:16;10.13;;;2.60;;
52274;SDS011;38228;50.940;4.024;2023-07-16T01:45:42;9.90;;;2.75;;
52274;SDS011;38228;50.940;4.024;2023-07-16T01:48:30;10.63;;;3.50;;
52274;SDS011;38228;50.940;4.024;2023-07-16T01:50:57;11.82;;;3.38;;
52274;SDS011;38228;50.940;4.024;2023-07-16T01:53:23;10.65;;;3.70;;
52274;SDS011;38228;50.940;4.024;2023-07-16T01:55:49;8.82;;;3.78;;
52274;SDS011;38228;50.940;4.024;2023-07-16T01:58:14;13.25;;;3.80;;
52274;SDS011;38228;50.940;4.024;2023-07-16T02:00:41;7.90;;;3.60;;
52274;SDS011;38228;50.940;4.024;2023-07-16T02:03:07;13.18;;;4.63;;
52274;SDS011;38228;50.940;4.024;2023-07-16T02:05:32;11.45;;;4.05;;
52274;SDS011;38228;50.940;4.024;2023-07-16T02:07:58;9.90;;;3.53;;
52274;SDS011;38228;50.940;4.024;2023-07-16T02:10:24;11.75;;;4.20;;
52274;SDS011;38228;50.940;4.024;2023-07-16T02:12:50;9.38;;;4.00;;
52274;SDS011;38228;50.940;4.024;2023-07-16T02:15:15;11.75;;;3.63;;
52274;SDS011;38228;50.940;4.024;2023-07-16T02:17:42;15.05;;;4.45;;
52274;SDS011;38228;50.940;4.024;2023-07-16T02:20:09;10.65;;;4.05;;
52274;SDS011;38228;50.940;4.024;2023-07-16T02:22:35;10.05;;;3.40;;
52274;SDS011;38228;50.940;4.024;2023-07-16T02:25:02;11.93;;;3.75;;
52274;SDS011;38228;50.940;4.024;2023-07-16T02:27:28;11.75;;;4.00;;
52274;SDS011;38228;50.940;4.024;2023-07-16T02:29:54;24.10;;;4.05;;
52274;SDS011;38228;50.940;4.024;2023-07-16T02:32:20;10.20;;;3.78;;
52274;SDS011;38228;50.940;4.024;2023-07-16T02:34:45;12.23;;;4.07;;
52274;SDS011;38228;50.940;4.024;2023-07-16T02:37:11;9.02;;;3.75;;
52274;SDS011;38228;50.940;4.024;2023-07-16T02:39:38;9.98;;;3.50;;
52274;SDS011;38228;50.940;4.024;2023-07-16T02:42:04;13.70;;;3.60;;
52274;SDS011;38228;50.940;4.024;2023-07-16T02:44:30;9.82;;;3.50;;
52274;SDS011;38228;50.940;4.024;2023-07-16T02:46:56;10.90;;;4.22;;
52274;SDS011;38228;50.940;4.024;2023-07-16T02:49:21;11.75;;;3.72;;
52274;SDS011;38228;50.940;4.024;2023-07-16T02:51:47;10.45;;;4.07;;
52274;SDS011;38228;50.940;4.024;2023-07-16T02:54:13;7.80;;;4.22;;
52274;SDS011;38228;50.940;4.024;2023-07-16T02:56:39;9.93;;;4.68;;
52274;SDS011;38228;50.940;4.024;2023-07-16T02:59:04;8.57;;;4.32;;
52274;SDS011;38228;50.940;4.024;2023-07-16T03:01:30;12.50;;;4.90;;
52274;SDS011;38228;50.940;4.024;2023-07-16T03:03:56;13.63;;;4.80;;
52274;SDS011;38228;50.940;4.024;2023-07-16T03:06:21;14.55;;;5.13;;
52274;SDS011;38228;50.940;4.024;2023-07-16T03:08:47;14.10;;;5.30;;
52274;SDS011;38228;50.940;4.024;2023-07-16T03:11:13;12.75;;;5.18;;
52274;SDS011;38228;50.940;4.024;2023-07-16T03:13:39;12.05;;;5.22;;
52274;SDS011;38228;50.940;4.024;2023-07-16T03:16:06;9.88;;;5.35;;
52274;SDS011;38228;50.940;4.024;2023-07-16T03:18:32;16.75;;;5.20;;
52274;SDS011;38228;50.940;4.024;2023-07-16T03:20:58;12.88;;;5.50;;
52274;SDS011;38228;50.940;4.024;2023-07-16T03:23:24;13.63;;;5.30;;
52274;SDS011;38228;50.940;4.024;2023-07-16T03:25:50;15.57;;;5.20;;
52274;SDS011;38228;50.940;4.024;2023-07-16T03:28:19;11.88;;;5.05;;
52274;SDS011;38228;50.940;4.024;2023-07-16T03:30:48;13.68;;;5.80;;
52274;SDS011;38228;50.940;4.024;2023-07-16T03:33:15;14.43;;;6.07;;
52274;SDS011;38228;50.940;4.024;2023-07-16T03:35:44;15.18;;;5.55;;
52274;SDS011;38228;50.940;4.024;2023-07-16T03:38:11;11.98;;;5.43;;
52274;SDS011;38228;50.940;4.024;2023-07-16T03:40:37;11.80;;;5.57;;
52274;SDS011;38228;50.940;4.024;2023-07-16T03:43:03;16.15;;;5.75;;
52274;SDS011;38228;50.940;4.024;2023-07-16T03:45:29;13.95;;;6.05;;
52274;SDS011;38228;50.940;4.024;2023-07-16T03:47:55;12.75;;;5.50;;
52274;SDS011;38228;50.940;4.024;2023-07-16T03:50:21;12.00;;;5.15;;
52274;SDS011;38228;50.940;4.024;2023-07-16T03:52:47;16.27;;;5.80;;
52274;SDS011;38228;50.940;4.024;2023-07-16T03:55:13;11.80;;;5.80;;
52274;SDS011;38228;50.940;4.024;2023-07-16T03:57:38;15.10;;;6.32;;
52274;SDS011;38228;50.940;4.024;2023-07-16T04:00:05;11.55;;;5.55;;
52274;SDS011;38228;50.940;4.024;2023-07-16T04:02:34;12.02;;;6.28;;
52274;SDS011;38228;50.940;4.024;2023-07-16T04:05:00;13.90;;;6.53;;
52274;SDS011;38228;50.940;4.024;2023-07-16T04:07:25;21.63;;;6.82;;
52274;SDS011;38228;50.940;4.024;2023-07-16T04:09:51;13.48;;;5.95;;
52274;SDS011;38228;50.940;4.024;2023-07-16T04:12:17;13.88;;;5.93;;
52274;SDS011;38228;50.940;4.024;2023-07-16T04:14:43;17.15;;;6.40;;
52274;SDS011;38228;50.940;4.024;2023-07-16T04:17:09;18.25;;;7.28;;
52274;SDS011;38228;50.940;4.024;2023-07-16T04:19:34;17.80;;;6.05;;
52274;SDS011;38228;50.940;4.024;2023-07-16T04:22:01;16.25;;;6.15;;
52274;SDS011;38228;50.940;4.024;2023-07-16T04:24:26;18.33;;;6.40;;
52274;SDS011;38228;50.940;4.024;2023-07-16T04:26:55;15.43;;;6.32;;
52274;SDS011;38228;50.940;4.024;2023-07-16T04:29:21;13.88;;;6.40;;
52274;SDS011;38228;50.940;4.024;2023-07-16T04:31:47;19.45;;;7.03;;
52274;SDS011;38228;50.940;4.024;2023-07-16T04:34:13;17.98;;;6.88;;
52274;SDS011;38228;50.940;4.024;2023-07-16T04:36:39;16.38;;;5.90;;
52274;SDS011;38228;50.940;4.024;2023-07-16T04:39:04;12.75;;;6.10;;
52274;SDS011;38228;50.940;4.024;2023-07-16T04:41:30;16.90;;;6.80;;
52274;SDS011;38228;50.940;4.024;2023-07-16T04:43:56;16.73;;;6.70;;
52274;SDS011;38228;50.940;4.024;2023-07-16T04:46:22;13.52;;;6.18;;
52274;SDS011;38228;50.940;4.024;2023-07-16T04:48:48;17.15;;;6.53;;
52274;SDS011;38228;50.940;4.024;2023-07-16T04:51:13;18.92;;;6.97;;
52274;SDS011;38228;50.940;4.024;2023-07-16T04:53:39;17.02;;;6.82;;
52274;SDS011;38228;50.940;4.024;2023-07-16T04:56:10;20.98;;;7.10;;
52274;SDS011;38228;50.940;4.024;2023-07-16T04:58:40;16.02;;;7.40;;
52274;SDS011;38228;50.940;4.024;2023-07-16T05:01:10;23.45;;;7.43;;
52274;SDS011;38228;50.940;4.024;2023-07-16T05:03:36;17.13;;;7.20;;
52274;SDS011;38228;50.940;4.024;2023-07-16T05:06:02;17.63;;;7.57;;
52274;SDS011;38228;50.940;4.024;2023-07-16T05:08:28;15.13;;;7.20;;
52274;SDS011;38228;50.940;4.024;2023-07-16T05:10:54;16.30;;;7.43;;
52274;SDS011;38228;50.940;4.024;2023-07-16T05:13:19;18.50;;;7.10;;
52274;SDS011;38228;50.940;4.024;2023-07-16T05:15:45;18.05;;;7.22;;
52274;SDS011;38228;50.940;4.024;2023-07-16T05:18:11;19.98;;;7.93;;
52274;SDS011;38228;50.940;4.024;2023-07-16T05:20:37;11.65;;;6.78;;
52274;SDS011;38228;50.940;4.024;2023-07-16T05:23:03;20.67;;;7.75;;
52274;SDS011;38228;50.940;4.024;2023-07-16T05:25:28;15.40;;;6.97;;
52274;SDS011;38228;50.940;4.024;2023-07-16T05:27:55;18.77;;;7.75;;
52274;SDS011;38228;50.940;4.024;2023-07-16T05:30:21;14.65;;;6.97;;
52274;SDS011;38228;50.940;4.024;2023-07-16T05:32:46;16.02;;;7.18;;
52274;SDS011;38228;50.940;4.024;2023-07-16T05:35:12;21.20;;;7.82;;
52274;SDS011;38228;50.940;4.024;2023-07-16T05:37:38;15.52;;;7.88;;
52274;SDS011;38228;50.940;4.024;2023-07-16T05:40:04;18.83;;;8.10;;
52274;SDS011;38228;50.940;4.024;2023-07-16T05:42:33;19.85;;;8.07;;
52274;SDS011;38228;50.940;4.024;2023-07-16T05:45:00;20.58;;;7.97;;
52274;SDS011;38228;50.940;4.024;2023-07-16T05:47:25;16.20;;;7.72;;
52274;SDS011;38228;50.940;4.024;2023-07-16T05:49:51;17.35;;;7.30;;
52274;SDS011;38228;50.940;4.024;2023-07-16T05:52:17;16.40;;;7.35;;
52274;SDS011;38228;50.940;4.024;2023-07-16T05:54:43;15.65;;;7.82;;
52274;SDS011;38228;50.940;4.024;2023-07-16T05:57:12;18.48;;;8.25;;
52274;SDS011;38228;50.940;4.024;2023-07-16T05:59:38;20.60;;;7.68;;
52274;SDS011;38228;50.940;4.024;2023-07-16T06:02:04;16.70;;;7.97;;
52274;SDS011;38228;50.940;4.024;2023-07-16T06:04:30;18.50;;;7.85;;
52274;SDS011;38228;50.940;4.024;2023-07-16T06:06:56;16.55;;;7.53;;
52274;SDS011;38228;50.940;4.024;2023-07-16T06:09:22;19.02;;;7.72;;
52274;SDS011;38228;50.940;4.024;2023-07-16T06:11:51;19.80;;;8.95;;
52274;SDS011;38228;50.940;4.024;2023-07-16T06:14:17;20.25;;;8.43;;
52274;SDS011;38228;50.940;4.024;2023-07-16T06:16:42;22.48;;;8.35;;
52274;SDS011;38228;50.940;4.024;2023-07-16T06:19:08;18.48;;;7.78;;
52274;SDS011;38228;50.940;4.024;2023-07-16T06:21:34;17.73;;;7.85;;
52274;SDS011;38228;50.940;4.024;2023-07-16T06:24:00;17.30;;;8.02;;
52274;SDS011;38228;50.940;4.024;2023-07-16T06:26:26;17.38;;;7.82;;
52274;SDS011;38228;50.940;4.024;2023-07-16T06:28:52;18.13;;;8.10;;
52274;SDS011;38228;50.940;4.024;2023-07-16T06:31:17;19.25;;;7.78;;
52274;SDS011;38228;50.940;4.024;2023-07-16T06:33:43;19.63;;;8.27;;
52274;SDS011;38228;50.940;4.024;2023-07-16T06:36:11;18.45;;;8.50;;
52274;SDS011;38228;50.940;4.024;2023-07-16T06:38:37;19.08;;;8.55;;
52274;SDS011;38228;50.940;4.024;2023-07-16T06:41:03;17.38;;;7.82;;
52274;SDS011;38228;50.940;4.024;2023-07-16T06:43:29;17.20;;;8.45;;
52274;SDS011;38228;50.940;4.024;2023-07-16T06:45:55;16.33;;;8.10;;
52274;SDS011;38228;50.940;4.024;2023-07-16T06:48:20;19.75;;;7.82;;
52274;SDS011;38228;50.940;4.024;2023-07-16T06:50:46;19.98;;;8.50;;
52274;SDS011;38228;50.940;4.024;2023-07-16T06:53:12;23.65;;;8.20;;
52274;SDS011;38228;50.940;4.024;2023-07-16T06:55:37;17.98;;;8.00;;
52274;SDS011;38228;50.940;4.024;2023-07-16T06:58:03;24.15;;;8.50;;
52274;SDS011;38228;50.940;4.024;2023-07-16T07:00:29;15.65;;;7.30;;
52274;SDS011;38228;50.940;4.024;2023-07-16T07:02:55;20.98;;;8.05;;
52274;SDS011;38228;50.940;4.024;2023-07-16T07:05:21;22.92;;;7.93;;
52274;SDS011;38228;50.940;4.024;2023-07-16T07:07:47;20.02;;;8.27;;
52274;SDS011;38228;50.940;4.024;2023-07-16T07:10:13;17.42;;;7.80;;
52274;SDS011;38228;50.940;4.024;2023-07-16T07:12:39;21.88;;;7.80;;
52274;SDS011;38228;50.940;4.024;2023-07-16T07:15:05;18.88;;;7.72;;
52274;SDS011;38228;50.940;4.024;2023-07-16T07:17:32;19.70;;;7.65;;
52274;SDS011;38228;50.940;4.024;2023-07-16T07:19:57;18.40;;;7.28;;
52274;SDS011;38228;50.940;4.024;2023-07-16T07:22:23;16.80;;;7.13;;
52274;SDS011;38228;50.940;4.024;2023-07-16T07:24:49;20.23;;;8.00;;
52274;SDS011;38228;50.940;4.024;2023-07-16T07:27:15;18.27;;;7.88;;
52274;SDS011;38228;50.940;4.024;2023-07-16T07:29:41;14.40;;;7.30;;
52274;SDS011;38228;50.940;4.024;2023-07-16T07:32:07;15.70;;;7.10;;
52274;SDS011;38228;50.940;4.024;2023-07-16T07:34:33;15.55;;;7.20;;
52274;SDS011;38228;50.940;4.024;2023-07-16T07:37:01;19.00;;;7.53;;
52274;SDS011;38228;50.940;4.024;2023-07-16T07:39:27;18.10;;;7.85;;
52274;SDS011;38228;50.940;4.024;2023-07-16T07:41:52;19.88;;;7.68;;
52274;SDS011;38228;50.940;4.024;2023-07-16T07:44:18;16.23;;;6.97;;
52274;SDS011;38228;50.940;4.024;2023-07-16T07:46:44;17.63;;;7.88;;
52274;SDS011;38228;50.940;4.024;2023-07-16T07:49:10;18.80;;;7.28;;
52274;SDS011;38228;50.940;4.024;2023-07-16T07:51:35;14.50;;;6.97;;
52274;SDS011;38228;50.940;4.024;2023-07-16T07:54:01;19.00;;;7.60;;
52274;SDS011;38228;50.940;4.024;2023-07-16T07:56:27;18.33;;;7.90;;
52274;SDS011;38228;50.940;4.024;2023-07-16T07:58:52;17.10;;;7.55;;
52274;SDS011;38228;50.940;4.024;2023-07-16T08:01:18;16.80;;;7.20;;
52274;SDS011;38228;50.940;4.024;2023-07-16T08:03:44;16.65;;;6.88;;
52274;SDS011;38228;50.940;4.024;2023-07-16T08:06:09;18.88;;;7.53;;
52274;SDS011;38228;50.940;4.024;2023-07-16T08:08:37;14.98;;;6.70;;
52274;SDS011;38228;50.940;4.024;2023-07-16T08:11:02;16.80;;;6.95;;
52274;SDS011;38228;50.940;4.024;2023-07-16T08:13:28;16.58;;;7.05;;
52274;SDS011;38228;50.940;4.024;2023-07-16T08:15:54;13.93;;;6.60;;
52274;SDS011;38228;50.940;4.024;2023-07-16T08:18:19;18.27;;;7.07;;
52274;SDS011;38228;50.940;4.024;2023-07-16T08:20:46;18.08;;;7.10;;
52274;SDS011;38228;50.940;4.024;2023-07-16T08:23:12;17.45;;;6.70;;
52274;SDS011;38228;50.940;4.024;2023-07-16T08:25:38;15.88;;;6.75;;
52274;SDS011;38228;50.940;4.024;2023-07-16T08:28:04;13.13;;;6.20;;
52274;SDS011;38228;50.940;4.024;2023-07-16T08:30:31;13.68;;;6.75;;
52274;SDS011;38228;50.940;4.024;2023-07-16T08:32:58;21.40;;;6.30;;
52274;SDS011;38228;50.940;4.024;2023-07-16T08:35:23;14.43;;;6.65;;
52274;SDS011;38228;50.940;4.024;2023-07-16T08:37:49;16.45;;;6.07;;
52274;SDS011;38228;50.940;4.024;2023-07-16T08:40:15;17.63;;;6.13;;
52274;SDS011;38228;50.940;4.024;2023-07-16T08:42:41;13.43;;;6.20;;
52274;SDS011;38228;50.940;4.024;2023-07-16T08:45:11;13.07;;;5.65;;
52274;SDS011;38228;50.940;4.024;2023-07-16T08:47:37;11.55;;;5.32;;
52274;SDS011;38228;50.940;4.024;2023-07-16T08:50:02;15.90;;;5.68;;
52274;SDS011;38228;50.940;4.024;2023-07-16T08:52:29;13.65;;;5.82;;
52274;SDS011;38228;50.940;4.024;2023-07-16T08:54:55;12.05;;;5.97;;
52274;SDS011;38228;50.940;4.024;2023-07-16T08:57:22;13.75;;;5.75;;
52274;SDS011;38228;50.940;4.024;2023-07-16T08:59:48;13.10;;;5.55;;
52274;SDS011;38228;50.940;4.024;2023-07-16T09:02:17;12.38;;;5.88;;
52274;SDS011;38228;50.940;4.024;2023-07-16T09:04:46;15.60;;;6.75;;
52274;SDS011;38228;50.940;4.024;2023-07-16T09:07:12;14.10;;;5.70;;
52274;SDS011;38228;50.940;4.024;2023-07-16T09:09:38;8.40;;;5.25;;
52274;SDS011;38228;50.940;4.024;2023-07-16T09:12:04;12.75;;;5.20;;
52274;SDS011;38228;50.940;4.024;2023-07-16T09:14:30;13.50;;;5.93;;
52274;SDS011;38228;50.940;4.024;2023-07-16T09:16:56;14.82;;;5.60;;
52274;SDS011;38228;50.940;4.024;2023-07-16T09:19:22;11.18;;;5.30;;
52274;SDS011;38228;50.940;4.024;2023-07-16T09:21:50;12.32;;;5.85;;
52274;SDS011;38228;50.940;4.024;2023-07-16T09:24:18;12.70;;;6.05;;
52274;SDS011;38228;50.940;4.024;2023-07-16T09:26:48;20.02;;;6.18;;
52274;SDS011;38228;50.940;4.024;2023-07-16T09:29:18;13.20;;;5.90;;
52274;SDS011;38228;50.940;4.024;2023-07-16T09:31:52;13.57;;;5.70;;
52274;SDS011;38228;50.940;4.024;2023-07-16T09:34:19;12.45;;;6.25;;
52274;SDS011;38228;50.940;4.024;2023-07-16T09:36:48;11.70;;;5.00;;
52274;SDS011;38228;50.940;4.024;2023-07-16T09:39:17;13.20;;;5.90;;
52274;SDS011;38228;50.940;4.024;2023-07-16T09:41:49;12.35;;;5.50;;
52274;SDS011;38228;50.940;4.024;2023-07-16T09:44:15;11.02;;;5.28;;
52274;SDS011;38228;50.940;4.024;2023-07-16T09:46:42;10.13;;;5.38;;
52274;SDS011;38228;50.940;4.024;2023-07-16T09:49:09;13.82;;;4.90;;
52274;SDS011;38228;50.940;4.024;2023-07-16T09:51:36;11.23;;;5.47;;
52274;SDS011;38228;50.940;4.024;2023-07-16T09:54:03;16.23;;;6.07;;
52274;SDS011;38228;50.940;4.024;2023-07-16T09:56:34;12.07;;;5.90;;
52274;SDS011;38228;50.940;4.024;2023-07-16T09:59:05;13.87;;;5.77;;
52274;SDS011;38228;50.940;4.024;2023-07-16T10:01:36;12.80;;;5.35;;
52274;SDS011;38228;50.940;4.024;2023-07-16T10:04:12;11.90;;;5.25;;
52274;SDS011;38228;50.940;4.024;2023-07-16T10:06:55;15.93;;;5.88;;
52274;SDS011;38228;50.940;4.024;2023-07-16T10:09:35;16.67;;;5.75;;
52274;SDS011;38228;50.940;4.024;2023-07-16T10:12:13;15.65;;;5.35;;
52274;SDS011;38228;50.940;4.024;2023-07-16T10:14:44;15.32;;;5.45;;
52274;SDS011;38228;50.940;4.024;2023-07-16T10:17:23;10.60;;;5.78;;
52274;SDS011;38228;50.940;4.024;2023-07-16T10:22:37;10.82;;;5.50;;
52274;SDS011;38228;50.940;4.024;2023-07-16T10:25:21;11.00;;;4.80;;
52274;SDS011;38228;50.940;4.024;2023-07-16T10:27:49;8.80;;;4.55;;
52274;SDS011;38228;50.940;4.024;2023-07-16T10:30:16;12.90;;;4.47;;
52274;SDS011;38228;50.940;4.024;2023-07-16T10:32:42;9.93;;;4.40;;
52274;SDS011;38228;50.940;4.024;2023-07-16T10:35:08;11.73;;;4.35;;
52274;SDS011;38228;50.940;4.024;2023-07-16T10:37:35;9.63;;;3.75;;
52274;SDS011;38228;50.940;4.024;2023-07-16T10:40:02;9.52;;;4.10;;
52274;SDS011;38228;50.940;4.024;2023-07-16T10:42:29;8.68;;;4.30;;
52274;SDS011;38228;50.940;4.024;2023-07-16T10:44:59;9.77;;;5.13;;
52274;SDS011;38228;50.940;4.024;2023-07-16T10:47:32;9.60;;;5.03;;
52274;SDS011;38228;50.940;4.024;2023-07-16T10:49:59;11.30;;;4.90;;
52274;SDS011;38228;50.940;4.024;2023-07-16T10:52:26;9.70;;;4.40;;
52274;SDS011;38228;50.940;4.024;2023-07-16T10:54:52;9.45;;;4.45;;
52274;SDS011;38228;50.940;4.024;2023-07-16T10:57:23;10.80;;;4.18;;
52274;SDS011;38228;50.940;4.024;2023-07-16T10:59:50;5.45;;;3.70;;
52274;SDS011;38228;50.940;4.024;2023-07-16T11:02:17;6.68;;;4.03;;
52274;SDS011;38228;50.940;4.024;2023-07-16T11:04:46;7.90;;;4.28;;
52274;SDS011;38228;50.940;4.024;2023-07-16T11:07:13;10.13;;;4.45;;
52274;SDS011;38228;50.940;4.024;2023-07-16T11:09:43;11.45;;;4.07;;
52274;SDS011;38228;50.940;4.024;2023-07-16T11:12:14;7.38;;;4.05;;
52274;SDS011;38228;50.940;4.024;2023-07-16T11:14:45;8.30;;;4.55;;
52274;SDS011;38228;50.940;4.024;2023-07-16T11:17:12;9.95;;;3.85;;
52274;SDS011;38228;50.940;4.024;2023-07-16T11:19:38;9.95;;;4.40;;
52274;SDS011;38228;50.940;4.024;2023-07-16T11:22:05;8.60;;;3.97;;
52274;SDS011;38228;50.940;4.024;2023-07-16T11:24:38;9.80;;;4.18;;
52274;SDS011;38228;50.940;4.024;2023-07-16T11:27:18;11.18;;;4.72;;
52274;SDS011;38228;50.940;4.024;2023-07-16T11:29:56;10.27;;;4.55;;
52274;SDS011;38228;50.940;4.024;2023-07-16T11:34:54;10.48;;;3.95;;
52274;SDS011;38228;50.940;4.024;2023-07-16T11:37:20;7.40;;;3.85;;
52274;SDS011;38228;50.940;4.024;2023-07-16T11:39:47;8.90;;;4.20;;
52274;SDS011;38228;50.940;4.024;2023-07-16T11:42:13;10.00;;;3.83;;
52274;SDS011;38228;50.940;4.024;2023-07-16T11:44:42;7.75;;;3.63;;
52274;SDS011;38228;50.940;4.024;2023-07-16T11:47:13;6.72;;;3.03;;
52274;SDS011;38228;50.940;4.024;2023-07-16T11:49:39;6.95;;;3.30;;
52274;SDS011;38228;50.940;4.024;2023-07-16T11:52:04;4.63;;;2.95;;
52274;SDS011;38228;50.940;4.024;2023-07-16T11:54:31;8.05;;;3.42;;
52274;SDS011;38228;50.940;4.024;2023-07-16T11:56:56;7.53;;;3.50;;
52274;SDS011;38228;50.940;4.024;2023-07-16T11:59:22;7.15;;;3.45;;
52274;SDS011;38228;50.940;4.024;2023-07-16T12:01:48;8.25;;;3.60;;
52274;SDS011;38228;50.940;4.024;2023-07-16T12:04:15;9.00;;;3.50;;
52274;SDS011;38228;50.940;4.024;2023-07-16T12:06:42;7.95;;;3.40;;
52274;SDS011;38228;50.940;4.024;2023-07-16T12:09:08;6.80;;;3.35;;
52274;SDS011;38228;50.940;4.024;2023-07-16T12:11:33;7.70;;;3.60;;
52274;SDS011;38228;50.940;4.024;2023-07-16T12:13:59;5.32;;;2.95;;
52274;SDS011;38228;50.940;4.024;2023-07-16T12:16:25;4.13;;;2.30;;
52274;SDS011;38228;50.940;4.024;2023-07-16T12:18:51;9.73;;;2.90;;
52274;SDS011;38228;50.940;4.024;2023-07-16T12:21:16;7.97;;;3.78;;
52274;SDS011;38228;50.940;4.024;2023-07-16T12:23:42;9.07;;;3.30;;
52274;SDS011;38228;50.940;4.024;2023-07-16T12:26:08;8.55;;;3.05;;
52274;SDS011;38228;50.940;4.024;2023-07-16T12:28:34;7.15;;;2.80;;
52274;SDS011;38228;50.940;4.024;2023-07-16T12:30:59;6.93;;;3.25;;
52274;SDS011;38228;50.940;4.024;2023-07-16T12:33:25;7.32;;;2.95;;
52274;SDS011;38228;50.940;4.024;2023-07-16T12:35:51;6.65;;;3.00;;
52274;SDS011;38228;50.940;4.024;2023-07-16T12:38:17;9.48;;;3.22;;
52274;SDS011;38228;50.940;4.024;2023-07-16T12:40:43;7.65;;;3.08;;
52274;SDS011;38228;50.940;4.024;2023-07-16T12:43:08;5.13;;;2.78;;
52274;SDS011;38228;50.940;4.024;2023-07-16T12:45:34;10.63;;;3.13;;
52274;SDS011;38228;50.940;4.024;2023-07-16T12:48:00;7.55;;;3.17;;
52274;SDS011;38228;50.940;4.024;2023-07-16T12:50:26;6.05;;;2.88;;
52274;SDS011;38228;50.940;4.024;2023-07-16T12:52:54;4.35;;;2.50;;
52274;SDS011;38228;50.940;4.024;2023-07-16T12:55:19;7.68;;;3.20;;
52274;SDS011;38228;50.940;4.024;2023-07-16T12:57:45;5.93;;;2.40;;
52274;SDS011;38228;50.940;4.024;2023-07-16T13:00:11;4.72;;;2.20;;
52274;SDS011;38228;50.940;4.024;2023-07-16T13:02:38;6.32;;;2.00;;
52274;SDS011;38228;50.940;4.024;2023-07-16T13:05:03;5.75;;;2.00;;
52274;SDS011;38228;50.940;4.024;2023-07-16T13:07:30;4.60;;;1.60;;
52274;SDS011;38228;50.940;4.024;2023-07-16T13:09:58;2.90;;;1.40;;
52274;SDS011;38228;50.940;4.024;2023-07-16T13:12:24;4.43;;;1.30;;
52274;SDS011;38228;50.940;4.024;2023-07-16T13:14:50;2.15;;;0.82;;
52274;SDS011;38228;50.940;4.024;2023-07-16T13:17:16;3.63;;;1.30;;
52274;SDS011;38228;50.940;4.024;2023-07-16T13:19:44;5.95;;;1.50;;
52274;SDS011;38228;50.940;4.024;2023-07-16T13:22:09;4.78;;;1.42;;
52274;SDS011;38228;50.940;4.024;2023-07-16T13:24:35;3.47;;;0.90;;
52274;SDS011;38228;50.940;4.024;2023-07-16T13:27:01;2.28;;;0.93;;
52274;SDS011;38228;50.940;4.024;2023-07-16T13:29:27;3.97;;;1.13;;
52274;SDS011;38228;50.940;4.024;2023-07-16T13:31:53;8.77;;;1.38;;
52274;SDS011;38228;50.940;4.024;2023-07-16T13:34:19;3.95;;;0.90;;
52274;SDS011;38228;50.940;4.024;2023-07-16T13:36:44;1.80;;;0.80;;
52274;SDS011;38228;50.940;4.024;2023-07-16T13:39:10;1.95;;;0.70;;
52274;SDS011;38228;50.940;4.024;2023-07-16T13:41:38;2.95;;;0.80;;
52274;SDS011;38228;50.940;4.024;2023-07-16T13:44:04;2.15;;;0.68;;
52274;SDS011;38228;50.940;4.024;2023-07-16T13:46:30;4.00;;;0.80;;
52274;SDS011;38228;50.940;4.024;2023-07-16T13:48:55;2.38;;;0.60;;
52274;SDS011;38228;50.940;4.024;2023-07-16T13:51:22;1.85;;;0.65;;
52274;SDS011;38228;50.940;4.024;2023-07-16T13:53:48;1.85;;;0.80;;
52274;SDS011;38228;50.940;4.024;2023-07-16T13:56:14;1.30;;;0.60;;
52274;SDS011;38228;50.940;4.024;2023-07-16T13:58:39;2.30;;;0.77;;
52274;SDS011;38228;50.940;4.024;2023-07-16T14:01:05;1.05;;;0.70;;
52274;SDS011;38228;50.940;4.024;2023-07-16T14:03:31;2.08;;;0.70;;
52274;SDS011;38228;50.940;4.024;2023-07-16T14:05:57;3.40;;;0.80;;
52274;SDS011;38228;50.940;4.024;2023-07-16T14:08:23;1.83;;;0.80;;
52274;SDS011;38228;50.940;4.024;2023-07-16T14:10:48;1.55;;;0.85;;
52274;SDS011;38228;50.940;4.024;2023-07-16T14:13:14;2.13;;;0.77;;
52274;SDS011;38228;50.940;4.024;2023-07-16T14:15:41;3.28;;;1.00;;
52274;SDS011;38228;50.940;4.024;2023-07-16T14:18:07;2.78;;;1.10;;
52274;SDS011;38228;50.940;4.024;2023-07-16T14:20:32;4.35;;;1.30;;
52274;SDS011;38228;50.940;4.024;2023-07-16T14:22:58;3.15;;;1.20;;
52274;SDS011;38228;50.940;4.024;2023-07-16T14:25:25;1.92;;;1.10;;
52274;SDS011;38228;50.940;4.024;2023-07-16T14:27:50;3.70;;;0.95;;
52274;SDS011;38228;50.940;4.024;2023-07-16T14:30:16;2.72;;;1.13;;
52274;SDS011;38228;50.940;4.024;2023-07-16T14:32:42;4.32;;;1.10;;
52274;SDS011;38228;50.940;4.024;2023-07-16T14:35:08;3.88;;;1.40;;
52274;SDS011;38228;50.940;4.024;2023-07-16T14:37:34;2.15;;;1.20;;
52274;SDS011;38228;50.940;4.024;2023-07-16T14:40:00;3.25;;;1.35;;
52274;SDS011;38228;50.940;4.024;2023-07-16T14:42:26;3.15;;;1.20;;
52274;SDS011;38228;50.940;4.024;2023-07-16T14:44:52;3.60;;;1.08;;
52274;SDS011;38228;50.940;4.024;2023-07-16T14:47:17;2.60;;;0.80;;
52274;SDS011;38228;50.940;4.024;2023-07-16T14:49:43;2.80;;;1.20;;